sensor_id;sensor_type;location;lat;lon;timestamp;temperature;humidity
35325;DHT22;35135;47.510;19.036;2023-02-15T00:01:30;20.50;49.70
35325;DHT22;35135;47.510;19.036;2023-02-15T00:03:56;20.50;50.20
35325;DHT22;35135;47.510;19.036;2023-02-15T00:06:23;20.50;49.90
35325;DHT22;35135;47.510;19.036;2023-02-15T00:08:48;20.50;49.70
35325;DHT22;35135;47.510;19.036;2023-02-15T00:11:16;20.50;49.70
35325;DHT22;35135;47.510;19.036;2023-02-15T00:13:42;20.40;49.60
35325;DHT22;35135;47.510;19.036;2023-02-15T00:16:10;20.40;49.40
35325;DHT22;35135;47.510;19.036;2023-02-15T00:18:39;20.40;49.30
35325;DHT22;35135;47.510;19.036;2023-02-15T00:21:09;20.40;49.50
35325;DHT22;35135;47.510;19.036;2023-02-15T00:23:36;20.40;49.50
35325;DHT22;35135;47.510;19.036;2023-02-15T00:26:06;20.40;49.30
35325;DHT22;35135;47.510;19.036;2023-02-15T00:28:32;20.40;49.40
35325;DHT22;35135;47.510;19.036;2023-02-15T00:31:09;20.40;49.50
35325;DHT22;35135;47.510;19.036;2023-02-15T00:33:36;20.40;49.50
35325;DHT22;35135;47.510;19.036;2023-02-15T00:36:02;20.40;49.50
35325;DHT22;35135;47.510;19.036;2023-02-15T00:38:29;20.40;49.50
35325;DHT22;35135;47.510;19.036;2023-02-15T00:40:56;20.40;49.40
35325;DHT22;35135;47.510;19.036;2023-02-15T00:43:22;20.40;49.40
35325;DHT22;35135;47.510;19.036;2023-02-15T00:45:48;20.40;49.40
35325;DHT22;35135;47.510;19.036;2023-02-15T00:48:13;20.40;49.60
35325;DHT22;35135;47.510;19.036;2023-02-15T00:50:39;20.40;49.20
35325;DHT22;35135;47.510;19.036;2023-02-15T00:53:05;20.40;49.30
35325;DHT22;35135;47.510;19.036;2023-02-15T00:55:31;20.40;49.50
35325;DHT22;35135;47.510;19.036;2023-02-15T00:57:56;20.40;49.40
35325;DHT22;35135;47.510;19.036;2023-02-15T01:00:22;20.40;49.20
35325;DHT22;35135;47.510;19.036;2023-02-15T01:02:48;20.30;49.00
35325;DHT22;35135;47.510;19.036;2023-02-15T01:05:13;20.30;49.40
35325;DHT22;35135;47.510;19.036;2023-02-15T01:07:39;20.30;49.40
35325;DHT22;35135;47.510;19.036;2023-02-15T01:10:06;20.40;49.20
35325;DHT22;35135;47.510;19.036;2023-02-15T01:12:33;20.40;49.20
35325;DHT22;35135;47.510;19.036;2023-02-15T01:14:58;20.30;49.10
35325;DHT22;35135;47.510;19.036;2023-02-15T01:17:24;20.30;49.00
35325;DHT22;35135;47.510;19.036;2023-02-15T01:19:50;20.30;48.90
35325;DHT22;35135;47.510;19.036;2023-02-15T01:22:17;20.30;49.00
35325;DHT22;35135;47.510;19.036;2023-02-15T01:24:43;20.30;49.00
35325;DHT22;35135;47.510;19.036;2023-02-15T01:27:09;20.30;49.00
35325;DHT22;35135;47.510;19.036;2023-02-15T01:29:35;20.30;48.90
35325;DHT22;35135;47.510;19.036;2023-02-15T01:32:01;20.30;49.00
35325;DHT22;35135;47.510;19.036;2023-02-15T01:34:28;20.30;48.90
35325;DHT22;35135;47.510;19.036;2023-02-15T01:36:54;20.30;48.90
35325;DHT22;35135;47.510;19.036;2023-02-15T01:39:19;20.30;49.10
35325;DHT22;35135;47.510;19.036;2023-02-15T01:41:45;20.30;48.90
35325;DHT22;35135;47.510;19.036;2023-02-15T01:45:01;20.30;48.80
35325;DHT22;35135;47.510;19.036;2023-02-15T01:47:41;20.30;48.90
35325;DHT22;35135;47.510;19.036;2023-02-15T01:55:39;20.20;48.70
35325;DHT22;35135;47.510;19.036;2023-02-15T01:58:06;20.30;48.90
35325;DHT22;35135;47.510;19.036;2023-02-15T02:00:33;20.30;48.70
35325;DHT22;35135;47.510;19.036;2023-02-15T02:03:00;20.20;48.70
35325;DHT22;35135;47.510;19.036;2023-02-15T02:05:27;20.30;48.70
35325;DHT22;35135;47.510;19.036;2023-02-15T02:07:57;20.20;48.70
35325;DHT22;35135;47.510;19.036;2023-02-15T02:10:25;20.20;48.70
35325;DHT22;35135;47.510;19.036;2023-02-15T02:12:57;20.20;48.70
35325;DHT22;35135;47.510;19.036;2023-02-15T02:15:44;20.30;48.60
35325;DHT22;35135;47.510;19.036;2023-02-15T02:26:59;20.20;48.50
35325;DHT22;35135;47.510;19.036;2023-02-15T02:32:32;20.20;48.40
35325;DHT22;35135;47.510;19.036;2023-02-15T02:43:24;20.20;48.50
35325;DHT22;35135;47.510;19.036;2023-02-15T02:46:02;20.20;48.40
35325;DHT22;35135;47.510;19.036;2023-02-15T02:48:32;20.20;48.40
35325;DHT22;35135;47.510;19.036;2023-02-15T02:50:58;20.20;48.40
35325;DHT22;35135;47.510;19.036;2023-02-15T02:53:24;20.20;48.40
35325;DHT22;35135;47.510;19.036;2023-02-15T02:56:05;20.20;48.30
35325;DHT22;35135;47.510;19.036;2023-02-15T03:01:33;20.20;48.20
35325;DHT22;35135;47.510;19.036;2023-02-15T03:04:12;20.10;48.20
35325;DHT22;35135;47.510;19.036;2023-02-15T03:06:57;20.20;48.40
35325;DHT22;35135;47.510;19.036;2023-02-15T03:09:36;20.10;48.20
35325;DHT22;35135;47.510;19.036;2023-02-15T03:12:12;20.20;48.40
35325;DHT22;35135;47.510;19.036;2023-02-15T03:14:41;20.10;48.70
35325;DHT22;35135;47.510;19.036;2023-02-15T03:17:08;20.10;48.60
35325;DHT22;35135;47.510;19.036;2023-02-15T03:19:37;20.10;48.60
35325;DHT22;35135;47.510;19.036;2023-02-15T03:22:08;20.10;48.60
35325;DHT22;35135;47.510;19.036;2023-02-15T03:25:22;20.10;48.60
35325;DHT22;35135;47.510;19.036;2023-02-15T03:27:36;20.10;48.70
35325;DHT22;35135;47.510;19.036;2023-02-15T03:30:04;20.10;48.90
35325;DHT22;35135;47.510;19.036;2023-02-15T03:32:32;20.00;48.80
35325;DHT22;35135;47.510;19.036;2023-02-15T03:34:58;20.10;48.70
35325;DHT22;35135;47.510;19.036;2023-02-15T03:37:51;20.00;49.20
35325;DHT22;35135;47.510;19.036;2023-02-15T03:40:28;20.00;48.60
35325;DHT22;35135;47.510;19.036;2023-02-15T03:43:26;20.00;48.60
35325;DHT22;35135;47.510;19.036;2023-02-15T03:46:42;20.00;48.50
35325;DHT22;35135;47.510;19.036;2023-02-15T03:49:20;20.00;48.50
35325;DHT22;35135;47.510;19.036;2023-02-15T03:51:48;20.00;48.50
35325;DHT22;35135;47.510;19.036;2023-02-15T03:54:21;20.00;48.70
35325;DHT22;35135;47.510;19.036;2023-02-15T03:57:09;20.00;48.70
35325;DHT22;35135;47.510;19.036;2023-02-15T03:59:53;20.00;48.50
35325;DHT22;35135;47.510;19.036;2023-02-15T04:02:55;20.00;48.60
35325;DHT22;35135;47.510;19.036;2023-02-15T04:05:23;20.00;48.50
35325;DHT22;35135;47.510;19.036;2023-02-15T04:07:48;20.00;48.50
35325;DHT22;35135;47.510;19.036;2023-02-15T04:10:14;20.00;48.50
35325;DHT22;35135;47.510;19.036;2023-02-15T04:12:58;20.00;48.50
35325;DHT22;35135;47.510;19.036;2023-02-15T04:15:24;20.00;48.60
35325;DHT22;35135;47.510;19.036;2023-02-15T04:18:08;19.90;48.50
35325;DHT22;35135;47.510;19.036;2023-02-15T04:20:34;20.00;48.70
35325;DHT22;35135;47.510;19.036;2023-02-15T04:23:18;20.00;48.50
35325;DHT22;35135;47.510;19.036;2023-02-15T04:26:05;20.00;48.30
35325;DHT22;35135;47.510;19.036;2023-02-15T04:28:31;20.00;48.50
35325;DHT22;35135;47.510;19.036;2023-02-15T04:30:57;20.00;48.40
35325;DHT22;35135;47.510;19.036;2023-02-15T04:33:23;19.90;48.30
35325;DHT22;35135;47.510;19.036;2023-02-15T04:35:48;19.90;49.10
35325;DHT22;35135;47.510;19.036;2023-02-15T04:38:14;19.90;48.50
35325;DHT22;35135;47.510;19.036;2023-02-15T04:40:40;19.90;48.50
35325;DHT22;35135;47.510;19.036;2023-02-15T04:43:05;19.90;48.30
35325;DHT22;35135;47.510;19.036;2023-02-15T04:45:31;19.90;48.30
35325;DHT22;35135;47.510;19.036;2023-02-15T04:47:57;19.90;48.30
35325;DHT22;35135;47.510;19.036;2023-02-15T04:50:22;19.90;48.30
35325;DHT22;35135;47.510;19.036;2023-02-15T04:52:48;19.90;48.30
35325;DHT22;35135;47.510;19.036;2023-02-15T04:55:14;19.90;48.30
35325;DHT22;35135;47.510;19.036;2023-02-15T04:57:40;19.90;48.30
35325;DHT22;35135;47.510;19.036;2023-02-15T05:00:06;19.90;48.30
35325;DHT22;35135;47.510;19.036;2023-02-15T05:02:31;19.80;48.20
35325;DHT22;35135;47.510;19.036;2023-02-15T05:04:57;19.90;48.20
35325;DHT22;35135;47.510;19.036;2023-02-15T05:07:23;19.90;48.30
35325;DHT22;35135;47.510;19.036;2023-02-15T05:09:49;19.90;48.10
35325;DHT22;35135;47.510;19.036;2023-02-15T05:12:15;19.90;48.20
35325;DHT22;35135;47.510;19.036;2023-02-15T05:14:40;19.90;48.30
35325;DHT22;35135;47.510;19.036;2023-02-15T05:17:06;19.90;48.30
35325;DHT22;35135;47.510;19.036;2023-02-15T05:19:32;19.90;48.30
35325;DHT22;35135;47.510;19.036;2023-02-15T05:21:58;19.80;48.30
35325;DHT22;35135;47.510;19.036;2023-02-15T05:24:24;19.80;48.10
35325;DHT22;35135;47.510;19.036;2023-02-15T05:27:11;19.80;48.20
35325;DHT22;35135;47.510;19.036;2023-02-15T05:29:55;19.80;48.10
35325;DHT22;35135;47.510;19.036;2023-02-15T05:32:20;19.80;48.20
35325;DHT22;35135;47.510;19.036;2023-02-15T05:34:46;19.80;48.10
35325;DHT22;35135;47.510;19.036;2023-02-15T05:37:12;19.80;48.10
35325;DHT22;35135;47.510;19.036;2023-02-15T05:39:37;19.80;47.90
35325;DHT22;35135;47.510;19.036;2023-02-15T05:42:03;19.80;48.00
35325;DHT22;35135;47.510;19.036;2023-02-15T05:44:29;19.80;48.00
35325;DHT22;35135;47.510;19.036;2023-02-15T05:46:55;19.80;48.00
35325;DHT22;35135;47.510;19.036;2023-02-15T05:49:20;19.80;48.00
35325;DHT22;35135;47.510;19.036;2023-02-15T05:51:46;19.80;48.00
35325;DHT22;35135;47.510;19.036;2023-02-15T05:54:12;19.80;48.00
35325;DHT22;35135;47.510;19.036;2023-02-15T05:56:37;19.80;48.00
35325;DHT22;35135;47.510;19.036;2023-02-15T05:59:03;19.80;47.90
35325;DHT22;35135;47.510;19.036;2023-02-15T06:01:29;19.80;47.90
35325;DHT22;35135;47.510;19.036;2023-02-15T06:03:54;19.80;47.90
35325;DHT22;35135;47.510;19.036;2023-02-15T06:06:21;19.80;47.90
35325;DHT22;35135;47.510;19.036;2023-02-15T06:08:47;19.80;47.90
35325;DHT22;35135;47.510;19.036;2023-02-15T06:11:13;19.80;47.80
35325;DHT22;35135;47.510;19.036;2023-02-15T06:13:38;19.80;47.80
35325;DHT22;35135;47.510;19.036;2023-02-15T06:16:05;19.80;47.70
35325;DHT22;35135;47.510;19.036;2023-02-15T06:18:30;19.80;47.60
35325;DHT22;35135;47.510;19.036;2023-02-15T06:20:56;19.80;47.50
35325;DHT22;35135;47.510;19.036;2023-02-15T06:23:21;19.80;48.00
35325;DHT22;35135;47.510;19.036;2023-02-15T06:25:47;19.80;48.40
35325;DHT22;35135;47.510;19.036;2023-02-15T06:28:13;19.80;47.80
35325;DHT22;35135;47.510;19.036;2023-02-15T06:30:39;19.90;48.00
35325;DHT22;35135;47.510;19.036;2023-02-15T06:33:04;19.90;47.80
35325;DHT22;35135;47.510;19.036;2023-02-15T06:35:30;19.90;47.70
35325;DHT22;35135;47.510;19.036;2023-02-15T06:37:56;19.90;47.90
35325;DHT22;35135;47.510;19.036;2023-02-15T06:40:21;19.90;48.10
35325;DHT22;35135;47.510;19.036;2023-02-15T06:42:47;19.90;48.00
35325;DHT22;35135;47.510;19.036;2023-02-15T06:45:13;19.90;48.00
35325;DHT22;35135;47.510;19.036;2023-02-15T06:47:39;19.90;48.10
35325;DHT22;35135;47.510;19.036;2023-02-15T06:50:06;19.90;48.10
35325;DHT22;35135;47.510;19.036;2023-02-15T06:52:32;20.00;48.20
35325;DHT22;35135;47.510;19.036;2023-02-15T06:54:57;20.00;48.00
35325;DHT22;35135;47.510;19.036;2023-02-15T06:57:23;20.10;47.80
35325;DHT22;35135;47.510;19.036;2023-02-15T06:59:49;20.10;47.80
35325;DHT22;35135;47.510;19.036;2023-02-15T07:02:14;20.10;47.60
35325;DHT22;35135;47.510;19.036;2023-02-15T07:04:40;20.10;47.60
35325;DHT22;35135;47.510;19.036;2023-02-15T07:07:10;20.10;47.60
35325;DHT22;35135;47.510;19.036;2023-02-15T07:09:36;20.00;47.60
35325;DHT22;35135;47.510;19.036;2023-02-15T07:12:02;20.10;47.80
35325;DHT22;35135;47.510;19.036;2023-02-15T07:14:47;20.00;47.70
35325;DHT22;35135;47.510;19.036;2023-02-15T07:17:12;20.00;47.80
35325;DHT22;35135;47.510;19.036;2023-02-15T07:19:38;20.00;47.90
35325;DHT22;35135;47.510;19.036;2023-02-15T07:22:04;20.00;48.00
35325;DHT22;35135;47.510;19.036;2023-02-15T07:24:30;20.00;48.10
35325;DHT22;35135;47.510;19.036;2023-02-15T07:26:56;20.00;48.30
35325;DHT22;35135;47.510;19.036;2023-02-15T07:29:23;20.00;48.40
35325;DHT22;35135;47.510;19.036;2023-02-15T07:31:48;20.00;48.60
35325;DHT22;35135;47.510;19.036;2023-02-15T07:34:14;20.00;48.50
35325;DHT22;35135;47.510;19.036;2023-02-15T07:36:41;20.10;48.60
35325;DHT22;35135;47.510;19.036;2023-02-15T07:39:09;20.10;48.60
35325;DHT22;35135;47.510;19.036;2023-02-15T07:41:35;20.10;48.70
35325;DHT22;35135;47.510;19.036;2023-02-15T07:44:00;20.20;48.90
35325;DHT22;35135;47.510;19.036;2023-02-15T07:46:26;20.20;48.80
35325;DHT22;35135;47.510;19.036;2023-02-15T07:48:52;20.20;49.10
35325;DHT22;35135;47.510;19.036;2023-02-15T07:51:17;20.30;49.10
35325;DHT22;35135;47.510;19.036;2023-02-15T07:53:43;20.30;49.00
35325;DHT22;35135;47.510;19.036;2023-02-15T07:56:11;20.30;49.10
35325;DHT22;35135;47.510;19.036;2023-02-15T07:58:37;20.40;49.20
35325;DHT22;35135;47.510;19.036;2023-02-15T08:01:21;20.40;50.00
35325;DHT22;35135;47.510;19.036;2023-02-15T08:03:47;20.40;49.30
35325;DHT22;35135;47.510;19.036;2023-02-15T08:06:13;20.40;49.30
35325;DHT22;35135;47.510;19.036;2023-02-15T08:08:40;20.40;49.40
35325;DHT22;35135;47.510;19.036;2023-02-15T08:11:22;20.40;49.30
35325;DHT22;35135;47.510;19.036;2023-02-15T08:13:58;20.40;49.50
35325;DHT22;35135;47.510;19.036;2023-02-15T08:16:31;20.40;49.40
35325;DHT22;35135;47.510;19.036;2023-02-15T08:18:59;20.50;49.50
35325;DHT22;35135;47.510;19.036;2023-02-15T08:21:26;20.40;49.20
35325;DHT22;35135;47.510;19.036;2023-02-15T08:23:54;20.40;49.20
35325;DHT22;35135;47.510;19.036;2023-02-15T08:26:20;20.40;49.10
35325;DHT22;35135;47.510;19.036;2023-02-15T08:28:46;20.40;49.00
35325;DHT22;35135;47.510;19.036;2023-02-15T08:31:13;20.40;48.90
35325;DHT22;35135;47.510;19.036;2023-02-15T08:33:40;20.40;48.70
35325;DHT22;35135;47.510;19.036;2023-02-15T08:36:12;20.40;48.80
35325;DHT22;35135;47.510;19.036;2023-02-15T08:38:38;20.40;48.80
35325;DHT22;35135;47.510;19.036;2023-02-15T08:41:24;20.40;48.50
35325;DHT22;35135;47.510;19.036;2023-02-15T08:43:55;20.40;48.50
35325;DHT22;35135;47.510;19.036;2023-02-15T08:46:23;20.40;48.50
35325;DHT22;35135;47.510;19.036;2023-02-15T08:48:49;20.30;48.50
35325;DHT22;35135;47.510;19.036;2023-02-15T08:51:18;20.30;48.40
35325;DHT22;35135;47.510;19.036;2023-02-15T08:53:48;20.30;48.30
35325;DHT22;35135;47.510;19.036;2023-02-15T08:56:15;20.30;48.30
35325;DHT22;35135;47.510;19.036;2023-02-15T08:58:41;20.30;48.30
35325;DHT22;35135;47.510;19.036;2023-02-15T09:01:11;20.30;48.30
35325;DHT22;35135;47.510;19.036;2023-02-15T09:03:37;20.30;48.30
35325;DHT22;35135;47.510;19.036;2023-02-15T09:06:04;20.30;48.40
35325;DHT22;35135;47.510;19.036;2023-02-15T09:08:30;20.30;48.40
35325;DHT22;35135;47.510;19.036;2023-02-15T09:11:08;20.30;48.30
35325;DHT22;35135;47.510;19.036;2023-02-15T09:13:35;20.30;48.10
35325;DHT22;35135;47.510;19.036;2023-02-15T09:16:02;20.20;48.10
35325;DHT22;35135;47.510;19.036;2023-02-15T09:18:30;20.20;48.00
35325;DHT22;35135;47.510;19.036;2023-02-15T09:20:56;20.30;48.10
35325;DHT22;35135;47.510;19.036;2023-02-15T09:23:22;20.30;48.10
35325;DHT22;35135;47.510;19.036;2023-02-15T09:25:48;20.20;48.10
35325;DHT22;35135;47.510;19.036;2023-02-15T09:28:13;20.30;48.00
35325;DHT22;35135;47.510;19.036;2023-02-15T09:30:39;20.20;48.00
35325;DHT22;35135;47.510;19.036;2023-02-15T09:33:05;20.20;48.00
35325;DHT22;35135;47.510;19.036;2023-02-15T09:35:30;20.20;48.10
35325;DHT22;35135;47.510;19.036;2023-02-15T09:37:56;20.20;48.00
35325;DHT22;35135;47.510;19.036;2023-02-15T09:40:22;20.20;48.00
35325;DHT22;35135;47.510;19.036;2023-02-15T09:43:15;20.20;47.90
35325;DHT22;35135;47.510;19.036;2023-02-15T09:48:41;20.10;47.90
35325;DHT22;35135;47.510;19.036;2023-02-15T09:54:09;20.20;47.90
35325;DHT22;35135;47.510;19.036;2023-02-15T09:59:19;20.10;48.00
35325;DHT22;35135;47.510;19.036;2023-02-15T10:15:39;20.10;47.80
35325;DHT22;35135;47.510;19.036;2023-02-15T10:21:26;20.10;47.70
35325;DHT22;35135;47.510;19.036;2023-02-15T10:26:47;20.10;47.70
35325;DHT22;35135;47.510;19.036;2023-02-15T10:29:27;20.10;47.80
35325;DHT22;35135;47.510;19.036;2023-02-15T10:32:20;20.10;47.80
35325;DHT22;35135;47.510;19.036;2023-02-15T10:37:53;20.10;47.60
35325;DHT22;35135;47.510;19.036;2023-02-15T10:51:01;20.10;47.60
35325;DHT22;35135;47.510;19.036;2023-02-15T10:53:44;20.10;47.60
35325;DHT22;35135;47.510;19.036;2023-02-15T10:56:42;20.10;47.60
35325;DHT22;35135;47.510;19.036;2023-02-15T10:59:19;20.10;47.60
35325;DHT22;35135;47.510;19.036;2023-02-15T11:07:23;20.10;47.60
35325;DHT22;35135;47.510;19.036;2023-02-15T11:09:56;20.00;47.50
35325;DHT22;35135;47.510;19.036;2023-02-15T11:12:28;20.00;47.50
35325;DHT22;35135;47.510;19.036;2023-02-15T11:17:47;20.10;47.50
35325;DHT22;35135;47.510;19.036;2023-02-15T11:20:24;20.10;47.60
35325;DHT22;35135;47.510;19.036;2023-02-15T11:22:51;20.10;47.60
35325;DHT22;35135;47.510;19.036;2023-02-15T11:25:23;20.10;47.50
35325;DHT22;35135;47.510;19.036;2023-02-15T11:27:50;20.10;47.50
35325;DHT22;35135;47.510;19.036;2023-02-15T11:30:23;20.10;47.50
35325;DHT22;35135;47.510;19.036;2023-02-15T11:32:57;20.10;47.50
35325;DHT22;35135;47.510;19.036;2023-02-15T11:35:35;20.10;48.00
35325;DHT22;35135;47.510;19.036;2023-02-15T11:38:21;20.10;47.40
35325;DHT22;35135;47.510;19.036;2023-02-15T11:40:49;20.10;47.40
35325;DHT22;35135;47.510;19.036;2023-02-15T11:43:21;20.10;47.40
35325;DHT22;35135;47.510;19.036;2023-02-15T11:45:49;20.10;47.40
35325;DHT22;35135;47.510;19.036;2023-02-15T11:48:15;20.10;47.50
35325;DHT22;35135;47.510;19.036;2023-02-15T11:50:44;20.10;47.40
35325;DHT22;35135;47.510;19.036;2023-02-15T11:53:18;20.10;47.40
35325;DHT22;35135;47.510;19.036;2023-02-15T11:55:48;20.10;47.40
35325;DHT22;35135;47.510;19.036;2023-02-15T12:04:24;20.10;47.30
35325;DHT22;35135;47.510;19.036;2023-02-15T12:06:58;20.10;47.30
35325;DHT22;35135;47.510;19.036;2023-02-15T12:09:42;20.10;47.20
35325;DHT22;35135;47.510;19.036;2023-02-15T12:12:28;20.10;47.20
35325;DHT22;35135;47.510;19.036;2023-02-15T12:14:57;20.10;47.20
35325;DHT22;35135;47.510;19.036;2023-02-15T12:17:28;20.10;47.10
35325;DHT22;35135;47.510;19.036;2023-02-15T12:19:57;20.10;47.10
35325;DHT22;35135;47.510;19.036;2023-02-15T12:22:28;20.10;47.10
35325;DHT22;35135;47.510;19.036;2023-02-15T12:24:56;20.10;47.10
35325;DHT22;35135;47.510;19.036;2023-02-15T12:27:34;20.20;47.10
35325;DHT22;35135;47.510;19.036;2023-02-15T12:30:06;20.20;47.10
35325;DHT22;35135;47.510;19.036;2023-02-15T12:32:50;20.20;47.10
35325;DHT22;35135;47.510;19.036;2023-02-15T12:35:29;20.20;47.00
35325;DHT22;35135;47.510;19.036;2023-02-15T12:38:19;20.20;47.10
35325;DHT22;35135;47.510;19.036;2023-02-15T12:41:04;20.20;47.00
35325;DHT22;35135;47.510;19.036;2023-02-15T12:43:36;20.20;47.00
35325;DHT22;35135;47.510;19.036;2023-02-15T12:48:39;20.20;47.10
35325;DHT22;35135;47.510;19.036;2023-02-15T12:51:13;20.20;47.00
35325;DHT22;35135;47.510;19.036;2023-02-15T12:53:39;20.30;47.20
35325;DHT22;35135;47.510;19.036;2023-02-15T12:56:07;20.20;47.10
35325;DHT22;35135;47.510;19.036;2023-02-15T12:58:41;20.20;47.10
35325;DHT22;35135;47.510;19.036;2023-02-15T13:01:11;20.30;48.00
35325;DHT22;35135;47.510;19.036;2023-02-15T13:03:47;20.20;47.30
35325;DHT22;35135;47.510;19.036;2023-02-15T13:06:18;20.30;47.30
35325;DHT22;35135;47.510;19.036;2023-02-15T13:08:52;20.30;47.20
35325;DHT22;35135;47.510;19.036;2023-02-15T13:11:28;20.30;47.20
35325;DHT22;35135;47.510;19.036;2023-02-15T13:14:01;20.30;47.20
35325;DHT22;35135;47.510;19.036;2023-02-15T13:16:36;20.30;47.20
35325;DHT22;35135;47.510;19.036;2023-02-15T13:22:43;20.30;47.20
35325;DHT22;35135;47.510;19.036;2023-02-15T13:25:24;20.30;47.20
35325;DHT22;35135;47.510;19.036;2023-02-15T13:27:54;20.30;47.20
35325;DHT22;35135;47.510;19.036;2023-02-15T13:32:49;20.30;47.10
35325;DHT22;35135;47.510;19.036;2023-02-15T13:35:17;20.30;47.10
35325;DHT22;35135;47.510;19.036;2023-02-15T13:38:00;20.30;47.10
35325;DHT22;35135;47.510;19.036;2023-02-15T13:46:14;20.30;47.10
35325;DHT22;35135;47.510;19.036;2023-02-15T14:08:02;20.40;47.10
35325;DHT22;35135;47.510;19.036;2023-02-15T14:11:27;20.40;47.10
35325;DHT22;35135;47.510;19.036;2023-02-15T14:14:28;20.40;47.10
35325;DHT22;35135;47.510;19.036;2023-02-15T14:17:20;20.40;47.10
35325;DHT22;35135;47.510;19.036;2023-02-15T14:20:04;20.40;47.10
35325;DHT22;35135;47.510;19.036;2023-02-15T14:22:44;20.30;47.10
35325;DHT22;35135;47.510;19.036;2023-02-15T14:30:30;20.30;47.10
35325;DHT22;35135;47.510;19.036;2023-02-15T14:33:05;20.40;47.20
35325;DHT22;35135;47.510;19.036;2023-02-15T14:35:32;20.40;47.20
35325;DHT22;35135;47.510;19.036;2023-02-15T14:40:54;20.40;47.20
35325;DHT22;35135;47.510;19.036;2023-02-15T14:48:52;20.40;47.20
35325;DHT22;35135;47.510;19.036;2023-02-15T14:54:08;20.40;47.10
35325;DHT22;35135;47.510;19.036;2023-02-15T14:56:34;20.40;47.40
35325;DHT22;35135;47.510;19.036;2023-02-15T14:59:20;20.40;47.30
35325;DHT22;35135;47.510;19.036;2023-02-15T15:04:35;20.40;47.20
35325;DHT22;35135;47.510;19.036;2023-02-15T15:07:21;20.40;47.30
35325;DHT22;35135;47.510;19.036;2023-02-15T15:12:50;20.40;47.40
35325;DHT22;35135;47.510;19.036;2023-02-15T15:20:49;20.30;47.30
35325;DHT22;35135;47.510;19.036;2023-02-15T15:34:05;20.20;47.20
35325;DHT22;35135;47.510;19.036;2023-02-15T15:49:55;20.20;46.80
35325;DHT22;35135;47.510;19.036;2023-02-15T15:52:21;20.20;46.90
35325;DHT22;35135;47.510;19.036;2023-02-15T15:54:55;20.20;46.80
35325;DHT22;35135;47.510;19.036;2023-02-15T15:59:50;20.20;46.70
35325;DHT22;35135;47.510;19.036;2023-02-15T16:02:17;20.20;46.80
35325;DHT22;35135;47.510;19.036;2023-02-15T16:04:44;20.20;46.70
35325;DHT22;35135;47.510;19.036;2023-02-15T16:10:05;20.20;47.00
35325;DHT22;35135;47.510;19.036;2023-02-15T16:12:35;20.30;47.00
35325;DHT22;35135;47.510;19.036;2023-02-15T16:15:16;20.30;47.10
35325;DHT22;35135;47.510;19.036;2023-02-15T16:17:45;20.20;47.20
35325;DHT22;35135;47.510;19.036;2023-02-15T16:20:19;20.30;47.50
35325;DHT22;35135;47.510;19.036;2023-02-15T16:22:49;20.20;47.50
35325;DHT22;35135;47.510;19.036;2023-02-15T16:25:45;20.30;47.60
35325;DHT22;35135;47.510;19.036;2023-02-15T16:28:12;20.20;47.50
35325;DHT22;35135;47.510;19.036;2023-02-15T16:30:39;20.30;47.50
35325;DHT22;35135;47.510;19.036;2023-02-15T16:33:33;20.30;47.50
35325;DHT22;35135;47.510;19.036;2023-02-15T16:36:00;20.30;47.40
35325;DHT22;35135;47.510;19.036;2023-02-15T16:41:34;20.30;47.40
35325;DHT22;35135;47.510;19.036;2023-02-15T16:44:07;20.30;47.30
35325;DHT22;35135;47.510;19.036;2023-02-15T16:46:41;20.30;47.60
35325;DHT22;35135;47.510;19.036;2023-02-15T16:49:28;20.30;47.50
35325;DHT22;35135;47.510;19.036;2023-02-15T16:52:03;20.30;47.40
35325;DHT22;35135;47.510;19.036;2023-02-15T16:54:32;20.30;47.30
35325;DHT22;35135;47.510;19.036;2023-02-15T16:56:58;20.30;47.40
35325;DHT22;35135;47.510;19.036;2023-02-15T16:59:41;20.30;47.40
35325;DHT22;35135;47.510;19.036;2023-02-15T17:02:16;20.30;47.90
35325;DHT22;35135;47.510;19.036;2023-02-15T17:04:42;20.30;47.40
35325;DHT22;35135;47.510;19.036;2023-02-15T17:07:19;20.30;47.50
35325;DHT22;35135;47.510;19.036;2023-02-15T17:09:56;20.30;47.40
35325;DHT22;35135;47.510;19.036;2023-02-15T17:12:47;20.30;47.60
35325;DHT22;35135;47.510;19.036;2023-02-15T17:18:17;20.30;47.70
35325;DHT22;35135;47.510;19.036;2023-02-15T17:20:45;20.30;47.50
35325;DHT22;35135;47.510;19.036;2023-02-15T17:23:28;20.30;47.90
35325;DHT22;35135;47.510;19.036;2023-02-15T17:25:55;20.30;47.50
35325;DHT22;35135;47.510;19.036;2023-02-15T17:28:24;20.30;47.50
35325;DHT22;35135;47.510;19.036;2023-02-15T17:30:54;20.30;47.50
35325;DHT22;35135;47.510;19.036;2023-02-15T17:33:36;20.30;47.60
35325;DHT22;35135;47.510;19.036;2023-02-15T17:38:38;20.30;47.90
35325;DHT22;35135;47.510;19.036;2023-02-15T17:41:04;20.30;47.90
35325;DHT22;35135;47.510;19.036;2023-02-15T17:43:30;20.30;47.80
35325;DHT22;35135;47.510;19.036;2023-02-15T17:45:56;20.30;47.70
35325;DHT22;35135;47.510;19.036;2023-02-15T17:48:41;20.30;47.80
35325;DHT22;35135;47.510;19.036;2023-02-15T17:51:12;20.30;48.20
35325;DHT22;35135;47.510;19.036;2023-02-15T17:53:38;20.30;47.90
35325;DHT22;35135;47.510;19.036;2023-02-15T17:56:04;20.30;48.00
35325;DHT22;35135;47.510;19.036;2023-02-15T17:58:36;20.30;47.90
35325;DHT22;35135;47.510;19.036;2023-02-15T18:01:06;20.30;47.90
35325;DHT22;35135;47.510;19.036;2023-02-15T18:03:52;20.30;47.90
35325;DHT22;35135;47.510;19.036;2023-02-15T18:06:41;20.30;48.40
35325;DHT22;35135;47.510;19.036;2023-02-15T18:09:25;20.30;48.70
35325;DHT22;35135;47.510;19.036;2023-02-15T18:12:20;20.30;48.50
35325;DHT22;35135;47.510;19.036;2023-02-15T18:14:46;20.30;48.50
35325;DHT22;35135;47.510;19.036;2023-02-15T18:17:13;20.30;49.10
35325;DHT22;35135;47.510;19.036;2023-02-15T18:19:41;20.30;49.80
35325;DHT22;35135;47.510;19.036;2023-02-15T18:22:12;20.30;49.20
35325;DHT22;35135;47.510;19.036;2023-02-15T18:24:38;20.40;49.90
35325;DHT22;35135;47.510;19.036;2023-02-15T18:27:05;20.30;49.40
35325;DHT22;35135;47.510;19.036;2023-02-15T18:29:31;20.40;49.30
35325;DHT22;35135;47.510;19.036;2023-02-15T18:31:56;20.40;49.30
35325;DHT22;35135;47.510;19.036;2023-02-15T18:34:34;20.40;49.30
35325;DHT22;35135;47.510;19.036;2023-02-15T18:37:03;20.40;49.40
35325;DHT22;35135;47.510;19.036;2023-02-15T18:39:39;20.40;49.40
35325;DHT22;35135;47.510;19.036;2023-02-15T18:42:22;20.40;49.70
35325;DHT22;35135;47.510;19.036;2023-02-15T18:44:52;20.40;50.30